Rancho Heights (217) Station Data

Red Flag Warning: No
Fire Weather Zone: 250
SDGE Region: North East
Lat/Lon: 33.42/-117.06

Observations

Time Wind Speed/Gust Temp(F) RH Fuel Moist Fuel Temp(F) Dewpt(F) Tmax(F) Tmin(F) Accum Precip 10-min Precip SL Press(mb)
3/29 8:00am 13 8 G 12 65° 21% - - 24° 65.9° 55° - - -
3/29 7:50am 10 6 G 9 65° 20% - - 23° 65.6° 55° - - -
3/29 7:40am 25 5 G 7 64° 21% - - 23° 64.9° 55° - - -
3/29 7:30am 53 5 G 7 63° 20% - - 21° 64.2° 55° - - -
3/29 7:20am 25 8 G 12 62° 21% - - 21° 63.2° 55° - - -
3/29 7:10am 18 9 G 13 62° 21% - - 21° 63.2° 55° - - -
3/29 7:00am 9 10 G 15 61° 20% - - 20° 63.2° 55° - - -
3/29 6:50am 13 11 G 14 61° 21% - - 21° 63.2° 55° - - -
3/29 6:40am 11 11 G 15 62° 20% - - 20° 63.2° 55° - - -
3/29 6:30am 4 11 G 15 63° 19% - - 20° 63.2° 55° - - -
3/29 6:20am 349 8 G 12 61° 22% - - 21° 63.2° 55° - - -
3/29 6:10am 351 5 G 8 60° 23% - - 22° 63.2° 55° - - -
3/29 6:00am 12 4 G 7 60° 23% - - 22° 63.2° 55° - - -
3/29 5:50am 13 8 G 10 62° 20% - - 21° 63.2° 55° - - -
3/29 5:40am 13 9 G 11 62° 19% - - 20° 63.2° 55° - - -
3/29 5:30am 17 9 G 11 61° 21% - - 20° 62.7° 55° - - -
3/29 5:20am 5 9 G 12 59° 23% - - 22° 62.2° 55° - - -
3/29 5:10am 354 9 G 12 60° 22% - - 21° 62.2° 55° - - -
3/29 5:00am 14 5 G 10 59° 23% - - 22° 62.2° 55° - - -
3/29 4:50am 4 6 G 10 59° 24% - - 23° 62.2° 55° - - -
3/29 4:40am 358 7 G 12 59° 24% - - 23° 62.2° 55° - - -
3/29 4:30am 355 8 G 12 61° 22% - - 22° 62.2° 55° - - -
3/29 4:20am 0 11 G 16 61° 23% - - 22° 62.2° 55° - - -
3/29 4:10am 6 14 G 18 60° 24% - - 23° 62.2° 55° - - -
3/29 4:00am 6 13 G 18 60° 25% - - 23° 62.2° 55° - - -
3/29 3:50am 3 10 G 15 58° 27% - - 24° 62.2° 55° - - -
3/29 3:40am 354 8 G 12 57° 28% - - 24° 62.2° 55° - - -
3/29 3:30am 352 7 G 10 56° 29% - - 24° 62.2° 55° - - -
3/29 3:20am 350 7 G 11 56° 31% - - 26° 62.2° 55° - - -
3/29 3:10am 342 8 G 11 59° 26% - - 24° 62.2° 55.3° - - -
3/29 3:00am 345 7 G 11 59° 25% - - 23° 62.2° 55.3° - - -
3/29 2:50am 346 7 G 12 59° 24% - - 22° 62.2° 55.3° - - -
3/29 2:40am 0 8 G 13 59° 25% - - 23° 62.2° 55.3° - - -
3/29 2:30am 355 9 G 14 59° 28% - - 26° 62.2° 55.3° - - -
3/29 2:20am 359 10 G 14 59° 29% - - 27° 62.2° 55.3° - - -
3/29 2:10am 355 8 G 13 58° 35% - - 31° 62.2° 55.3° - - -
3/29 2:00am 354 9 G 12 57° 40% - - 33° 62.2° 55.3° - - -
3/29 1:50am 359 8 G 12 57° 39% - - 32° 62.2° 55.3° - - -
3/29 1:40am 344 6 G 12 60° 30% - - 29° 62.2° 57.4° - - -
3/29 1:30am 1 5 G 8 59° 36% - - 32° 61.2° 57.4° - - -
3/29 1:20am 17 2 G 6 60° 39% - - 35° 61.2° 58.2° - - -
3/29 1:10am 146 2 G 4 60° 40% - - 36° 61.2° 58.7° - - -
3/29 1:00am 126 4 G 5 60° 37% - - 33° 60.8° 58.7° - - -
3/29 12:50am 123 5 G 6 60° 37% - - 33° 60.8° 58.7° - - -
3/29 12:40am 143 5 G 6 60° 36% - - 33° 60.8° 58.7° - - -
3/29 12:30am 144 5 G 6 60° 38% - - 34° 60.8° 58.7° - - -
3/29 12:20am 161 4 G 5 60° 36% - - 33° 60.8° 58.7° - - -
3/29 12:10am 157 4 G 5 60° 38% - - 34° 60.7° 58.7° - - -
3/29 12:00am 133 3 G 5 60° 39% - - 34° 71.4° 48° - - -
3/28 11:50pm 175 4 G 5 60° 37% - - 34° 71.4° 48° - - -
3/28 11:40pm 22 1 G 7 61° 31% - - 30° 71.4° 48° - - -
3/28 11:30pm 87 4 G 7 60° 36% - - 33° 71.4° 48° - - -
3/28 11:20pm 3 5 G 9 62° 28% - - 28° 71.4° 48° - - -
3/28 11:10pm 353 4 G 6 61° 29% - - 29° 71.4° 48° - - -
3/28 11:00pm 345 2 G 3 61° 30% - - 29° 71.4° 48° - - -
3/28 10:50pm 38 0 G 2 60° 33% - - 31° 71.4° 48° - - -
3/28 10:40pm 127 2 G 4 59° 36% - - 32° 71.4° 48° - - -
3/28 10:30pm 287 3 G 4 60° 37% - - 33° 71.4° 48° - - -
3/28 10:20pm 322 4 G 5 60° 36% - - 33° 71.4° 48° - - -
3/28 10:10pm 352 3 G 5 60° 35% - - 33° 71.4° 48° - - -
3/28 10:00pm 72 4 G 5 58° 42% - - 35° 71.4° 48° - - -
3/28 9:50pm 95 5 G 6 58° 45% - - 37° 71.4° 48° - - -
3/28 9:40pm 108 5 G 6 58° 45% - - 37° 71.4° 48° - - -
3/28 9:30pm 106 6 G 7 58° 46% - - 37° 71.4° 48° - - -
3/28 9:20pm 114 6 G 8 57° 48% - - 38° 71.4° 48° - - -
3/28 9:10pm 117 5 G 8 57° 45% - - 36° 71.4° 48° - - -
3/28 9:00pm 109 7 G 9 57° 43% - - 35° 71.4° 48° - - -
3/28 8:50pm 119 7 G 9 57° 43% - - 35° 71.4° 48° - - -
3/28 8:40pm 127 6 G 8 56° 46% - - 36° 71.4° 48° - - -
3/28 8:30pm 119 6 G 8 56° 48% - - 37° 71.4° 48° - - -
3/28 8:20pm 158 8 G 9 57° 47% - - 37° 71.4° 48° - - -
3/28 8:10pm 163 7 G 9 57° 48% - - 37° 71.4° 48° - - -
3/28 8:00pm 119 6 G 8 58° 48% - - 39° 71.4° 48° - - -
3/28 7:50pm 117 6 G 8 57° 50% - - 38° 71.4° 48° - - -
3/28 7:40pm 134 6 G 9 57° 51% - - 39° 71.4° 48° - - -
3/28 7:30pm 124 5 G 7 58° 50% - - 39° 71.4° 48° - - -
3/28 7:20pm 120 5 G 6 58° 50% - - 39° 71.4° 48° - - -
3/28 7:10pm 142 6 G 8 58° 50% - - 40° 71.4° 48° - - -
3/28 7:00pm 142 5 G 7 58° 50% - - 40° 71.4° 48° - - -
3/28 6:50pm 158 6 G 8 59° 49% - - 40° 71.4° 48° - - -
3/28 6:40pm 159 6 G 8 60° 49% - - 41° 71.4° 48° - - -
3/28 6:30pm 156 5 G 9 62° 44% - - 39° 71.4° 48° - - -
3/28 6:20pm 177 7 G 9 63° 39% - - 38° 71.4° 48° - - -
3/28 6:10pm 185 5 G 7 63° 37% - - 37° 71.4° 48° - - -
3/28 6:00pm 185 5 G 7 64° 39% - - 38° 71.4° 48° - - -
3/28 5:50pm 201 5 G 8 64° 39% - - 39° 71.4° 48° - - -
3/28 5:40pm 215 5 G 9 65° 38% - - 38° 71.4° 48° - - -
3/28 5:30pm 210 5 G 10 65° 37% - - 38° 71.4° 48° - - -
3/28 5:20pm 215 6 G 10 65° 37% - - 38° 71.4° 48° - - -
3/28 5:10pm 211 6 G 9 65° 38% - - 39° 71.4° 48° - - -
3/28 5:00pm 214 7 G 11 65° 40% - - 40° 71.4° 48° - - -
3/28 4:50pm 213 7 G 11 66° 41% - - 41° 71.4° 48° - - -
3/28 4:40pm 212 6 G 12 66° 40% - - 42° 71.4° 48° - - -
3/28 4:30pm 206 7 G 11 66° 40% - - 41° 71.4° 48° - - -
3/28 4:20pm 215 8 G 13 66° 41% - - 42° 71.4° 48° - - -
3/28 4:10pm 227 9 G 14 66° 41% - - 42° 71.4° 48° - - -
3/28 4:00pm 217 8 G 14 68° 40% - - 43° 71.4° 48° - - -
3/28 3:50pm 214 8 G 13 68° 41% - - 43° 71.4° 48° - - -
3/28 3:40pm 209 10 G 15 69° 41% - - 44° 71.4° 48° - - -
3/28 3:30pm 224 9 G 14 68° 39% - - 42° 71.4° 48° - - -
3/28 3:20pm 234 9 G 14 69° 37% - - 41° 71.4° 48° - - -
3/28 3:10pm 227 8 G 15 70° 32% - - 39° 71.4° 48° - - -
3/28 3:00pm 230 7 G 12 69° 38% - - 42° 71.4° 48° - - -
3/28 2:50pm 280 3 G 9 70° 22% - - 29° 71.4° 48° - - -
3/28 2:40pm 354 3 G 7 69° 21% - - 27° 70.1° 48° - - -
3/28 2:30pm 322 4 G 9 68° 20% - - 26° 69.1° 48° - - -
3/28 2:20pm 314 5 G 12 68° 21% - - 27° 69° 48° - - -
3/28 2:10pm 19 6 G 11 67° 22% - - 27° 68.6° 48° - - -
3/28 2:00pm 15 5 G 11 67° 22% - - 27° 68.6° 48° - - -
3/28 1:50pm 2 4 G 9 67° 22% - - 27° 68.6° 48° - - -
3/28 1:40pm 310 4 G 9 68° 22% - - 27° 68.6° 48° - - -
3/28 1:30pm 333 4 G 9 67° 23% - - 27° 68.1° 48° - - -
3/28 1:20pm 344 5 G 10 66° 23% - - 28° 68.1° 48° - - -
3/28 1:10pm 350 5 G 11 66° 24% - - 28° 68.1° 48° - - -
3/28 1:00pm 327 3 G 7 66° 24% - - 28° 66.8° 48° - - -
3/28 12:50pm 299 4 G 10 65° 25% - - 28° 66.5° 48° - - -
3/28 12:40pm 345 5 G 10 64° 25% - - 28° 66.5° 48° - - -
3/28 12:30pm 6 6 G 11 65° 26% - - 29° 66.5° 48° - - -
3/28 12:20pm 356 5 G 10 65° 26% - - 29° 66.1° 48° - - -
3/28 12:10pm 312 5 G 12 64° 25% - - 28° 65.1° 48° - - -
3/28 12:00pm 274 3 G 7 64° 26% - - 28° 64.9° 48° - - -
3/28 11:50am 301 4 G 8 63° 29% - - 30° 64.1° 48° - - -
3/28 11:40am 336 4 G 9 62° 30% - - 30° 63.2° 48° - - -
3/28 11:30am 335 5 G 8 62° 32% - - 32° 63.2° 48° - - -
3/28 11:20am 357 6 G 11 62° 32% - - 32° 62.8° 48° - - -
3/28 11:10am 0 8 G 13 61° 33% - - 31° 61.7° 48° - - -
3/28 11:00am 359 9 G 13 60° 33% - - 31° 61.6° 48° - - -
3/28 10:50am 4 9 G 14 60° 35% - - 32° 61.6° 48° - - -
3/28 10:40am 352 9 G 13 59° 35% - - 32° 60.5° 48° - - -
3/28 10:30am 346 8 G 15 59° 36% - - 32° 60° 48° - - -
3/28 10:20am 352 9 G 15 59° 38% - - 33° 60° 48° - - -
3/28 10:10am 352 9 G 14 58° 40% - - 34° 58.8° 48° - - -
3/28 10:00am 5 11 G 17 58° 38% - - 33° 58.8° 48° - - -
3/28 9:50am 5 13 G 17 58° 37% - - 32° 58.6° 48° - - -
3/28 9:40am 4 13 G 18 58° 37% - - 32° 58.6° 48° - - -
3/28 9:30am 9 13 G 18 58° 41% - - 34° 58.6° 48° - - -
3/28 9:20am 6 13 G 18 57° 43% - - 34° 57.3° 48° - - -
3/28 9:10am 11 14 G 20 56° 43% - - 34° 56.7° 48° - - -
3/28 9:00am 8 14 G 18 55° 44% - - 34° 56.2° 48° - - -
3/28 8:50am 8 15 G 18 55° 44% - - 34° 55.8° 48° - - -
3/28 8:40am 10 15 G 19 55° 44% - - 33° 55.7° 48° - - -
3/28 8:30am 9 15 G 19 55° 44% - - 34° 55.7° 48° - - -
3/28 8:20am 13 16 G 19 55° 44% - - 33° 55.5° 48° - - -
3/28 8:10am 17 15 G 19 55° 43% - - 33° 55.4° 48° - - -
3/28 8:00am 14 15 G 19 55° 43% - - 33° 55.4° 48° - - -
3/28 7:50am 14 14 G 19 54° 44% - - 33° 55.1° 48° - - -
3/28 7:40am 17 13 G 18 54° 45% - - 33° 54.7° 48° - - -
3/28 7:30am 13 12 G 17 54° 44% - - 32° 54.6° 48° - - -
3/28 7:20am 14 12 G 16 53° 45% - - 32° 53.9° 48° - - -
3/28 7:10am 15 13 G 17 53° 45% - - 32° 53.9° 48° - - -
3/28 7:00am 13 13 G 17 53° 47% - - 33° 53.4° 48° - - -
3/28 6:50am 18 15 G 18 52° 49% - - 34° 53.4° 48° - - -
3/28 6:40am 11 14 G 17 51° 52% - - 35° 53.4° 48° - - -
3/28 6:30am 8 14 G 17 51° 53% - - 35° 53.4° 48° - - -
3/28 6:20am 4 13 G 16 51° 53% - - 35° 53.4° 48° - - -
3/28 6:10am 5 13 G 15 51° 55% - - 35° 53.4° 48° - - -
3/28 6:00am 10 13 G 16 50° 57% - - 36° 53.4° 48° - - -